createdAt,value
2023-11-19T00:00:10.173Z,555.00
2023-11-19T00:00:40.204Z,555.00
2023-11-19T00:01:10.329Z,555.00
2023-11-19T00:01:40.437Z,554.00
2023-11-19T00:02:10.487Z,554.00
2023-11-19T00:02:40.697Z,555.00
2023-11-19T00:03:10.555Z,555.00
2023-11-19T00:03:40.607Z,557.00
2023-11-19T00:04:10.672Z,559.00
2023-11-19T00:04:40.724Z,559.00
2023-11-19T00:05:11.003Z,559.00
2023-11-19T00:05:40.810Z,558.00
2023-11-19T00:06:10.787Z,559.00
2023-11-19T00:06:40.813Z,560.00
2023-11-19T00:07:10.971Z,560.00
2023-11-19T00:07:40.966Z,561.00
2023-11-19T00:08:10.979Z,561.00
2023-11-19T00:08:40.959Z,560.00
2023-11-19T00:09:41.060Z,560.00
2023-11-19T00:10:11.215Z,559.00
2023-11-19T00:10:41.106Z,559.00
2023-11-19T00:11:11.145Z,558.00
2023-11-19T00:11:41.132Z,558.00
2023-11-19T00:12:41.211Z,557.00
2023-11-19T00:13:11.257Z,556.00
2023-11-19T00:13:41.281Z,555.00
2023-11-19T00:14:11.310Z,554.00
2023-11-19T00:14:41.341Z,552.00
2023-11-19T00:15:11.376Z,553.00
2023-11-19T00:15:41.413Z,553.00
2023-11-19T00:16:11.464Z,552.00
2023-11-19T00:16:41.492Z,552.00
2023-11-19T00:17:11.547Z,550.00
2023-11-19T00:17:41.851Z,548.00
2023-11-19T00:18:11.692Z,548.00
2023-11-19T00:18:41.812Z,549.00
2023-11-19T00:19:11.756Z,551.00
2023-11-19T00:19:41.786Z,553.00
2023-11-19T00:20:11.836Z,555.00
2023-11-19T00:20:41.859Z,558.00
2023-11-19T00:21:11.888Z,557.00
2023-11-19T00:21:41.920Z,557.00
2023-11-19T00:22:11.999Z,556.00
2023-11-19T00:22:49.401Z,558.00
2023-11-19T00:23:12.068Z,559.00
2023-11-19T00:23:42.116Z,558.00
2023-11-19T00:24:12.147Z,558.00
2023-11-19T00:24:42.180Z,558.00
2023-11-19T00:25:12.245Z,558.00
2023-11-19T00:25:42.277Z,558.00
2023-11-19T00:26:12.307Z,557.00
2023-11-19T00:26:42.366Z,556.00
2023-11-19T00:27:12.380Z,558.00
2023-11-19T00:27:42.407Z,557.00
2023-11-19T00:28:12.458Z,556.00
2023-11-19T00:28:42.476Z,558.00
2023-11-19T00:29:12.507Z,560.00
2023-11-19T00:29:42.535Z,562.00
2023-11-19T00:30:12.570Z,562.00
2023-11-19T00:30:42.596Z,562.00
2023-11-19T00:31:12.735Z,561.00
2023-11-19T00:31:42.761Z,561.00
2023-11-19T00:32:12.770Z,563.00
2023-11-19T00:32:42.818Z,562.00
2023-11-19T00:33:12.858Z,560.00
2023-11-19T00:34:12.998Z,559.00
2023-11-19T00:34:42.995Z,558.00
2023-11-19T00:35:13.009Z,558.00
2023-11-19T00:35:43.067Z,558.00
2023-11-19T00:36:13.099Z,559.00
2023-11-19T00:36:43.133Z,559.00
2023-11-19T00:37:13.230Z,560.00
2023-11-19T00:37:43.255Z,558.00
2023-11-19T00:38:13.296Z,558.00
2023-11-19T00:38:43.318Z,559.00
2023-11-19T00:39:13.377Z,559.00
2023-11-19T00:39:43.378Z,559.00
2023-11-19T00:40:13.436Z,559.00
2023-11-19T00:40:43.481Z,560.00
2023-11-19T00:41:13.505Z,559.00
2023-11-19T00:41:43.537Z,559.00
2023-11-19T00:42:13.613Z,558.00
2023-11-19T00:42:43.624Z,558.00
2023-11-19T00:43:13.793Z,559.00
2023-11-19T00:43:43.727Z,558.00
2023-11-19T00:44:13.757Z,557.00
2023-11-19T00:44:51.122Z,558.00
2023-11-19T00:45:13.840Z,559.00
2023-11-19T00:45:43.906Z,560.00
2023-11-19T00:46:13.983Z,558.00
2023-11-19T00:46:44.097Z,558.00
2023-11-19T00:47:14.058Z,559.00
2023-11-19T00:47:44.144Z,560.00
2023-11-19T00:48:14.088Z,561.00
2023-11-19T00:48:44.108Z,560.00
2023-11-19T00:49:14.211Z,559.00
2023-11-19T00:49:44.264Z,559.00
2023-11-19T00:50:14.661Z,557.00
2023-11-19T00:50:44.354Z,557.00
2023-11-19T00:51:14.383Z,558.00
2023-11-19T00:51:44.416Z,559.00
2023-11-19T00:52:14.491Z,558.00
2023-11-19T00:52:44.524Z,557.00
2023-11-19T00:53:14.563Z,556.00
2023-11-19T00:53:44.584Z,556.00
2023-11-19T00:54:14.617Z,558.00
2023-11-19T00:54:44.692Z,557.00
2023-11-19T00:55:14.746Z,555.00
2023-11-19T00:55:47.769Z,555.00
2023-11-19T00:56:14.855Z,558.00
2023-11-19T00:56:44.883Z,556.00
2023-11-19T00:57:14.932Z,556.00
2023-11-19T00:57:44.984Z,558.00
2023-11-19T00:58:15.050Z,559.00
2023-11-19T00:58:45.083Z,560.00
2023-11-19T00:59:15.142Z,560.00
2023-11-19T00:59:45.229Z,559.00
2023-11-19T01:00:15.238Z,561.00
2023-11-19T01:00:45.269Z,563.00
2023-11-19T01:01:15.337Z,563.00
2023-11-19T01:01:45.360Z,564.00
2023-11-19T01:02:15.479Z,565.00
2023-11-19T01:02:45.558Z,564.00
2023-11-19T01:03:15.555Z,565.00
2023-11-19T01:03:45.674Z,566.00
2023-11-19T01:04:15.655Z,566.00
2023-11-19T01:04:45.704Z,564.00
2023-11-19T01:05:15.764Z,564.00
2023-11-19T01:05:45.798Z,563.00
2023-11-19T01:06:15.772Z,561.00
2023-11-19T01:07:15.844Z,561.00
2023-11-19T01:07:45.861Z,562.00
2023-11-19T01:08:15.987Z,564.00
2023-11-19T01:08:45.996Z,564.00
2023-11-19T01:09:15.995Z,562.00
2023-11-19T01:09:45.986Z,562.00
2023-11-19T01:10:46.077Z,562.00
2023-11-19T01:11:16.080Z,561.00
2023-11-19T01:12:16.147Z,559.00
2023-11-19T01:12:46.148Z,558.00
2023-11-19T01:13:16.225Z,559.00
2023-11-19T01:13:46.232Z,560.00
2023-11-19T01:14:16.258Z,561.00
2023-11-19T01:14:46.294Z,560.00
2023-11-19T01:15:16.327Z,559.00
2023-11-19T01:15:46.395Z,559.00
2023-11-19T01:16:16.498Z,559.00
2023-11-19T01:16:46.575Z,561.00
2023-11-19T01:17:16.626Z,561.00
2023-11-19T01:18:16.783Z,563.00
2023-11-19T01:18:46.816Z,564.00
2023-11-19T01:19:18.342Z,564.00
2023-11-19T01:19:46.935Z,564.00
2023-11-19T01:20:16.912Z,563.00
2023-11-19T01:20:46.932Z,563.00
2023-11-19T01:21:16.987Z,563.00
2023-11-19T01:21:47.000Z,562.00
2023-11-19T01:22:17.081Z,563.00
2023-11-19T01:22:47.117Z,564.00
2023-11-19T01:23:17.138Z,565.00
2023-11-19T01:23:47.186Z,566.00
2023-11-19T01:24:17.215Z,566.00
2023-11-19T01:24:47.241Z,566.00
2023-11-19T01:25:17.299Z,566.00
2023-11-19T01:25:47.340Z,565.00
2023-11-19T01:26:17.376Z,564.00
2023-11-19T01:26:47.401Z,563.00
2023-11-19T01:27:17.453Z,563.00
2023-11-19T01:27:47.498Z,563.00
2023-11-19T01:28:17.539Z,563.00
2023-11-19T01:29:17.784Z,565.00
2023-11-19T01:29:47.733Z,564.00
2023-11-19T01:30:17.750Z,566.00
2023-11-19T01:30:47.784Z,565.00
2023-11-19T01:31:17.823Z,565.00
2023-11-19T01:31:47.848Z,566.00
2023-11-19T01:32:17.891Z,565.00
2023-11-19T01:32:47.947Z,566.00
2023-11-19T01:33:17.973Z,567.00
2023-11-19T01:33:48.026Z,567.00
2023-11-19T01:34:18.144Z,567.00
2023-11-19T01:34:48.147Z,567.00
2023-11-19T01:35:18.150Z,566.00
2023-11-19T01:35:48.182Z,565.00
2023-11-19T01:36:18.215Z,565.00
2023-11-19T01:36:48.253Z,566.00
2023-11-19T01:37:18.342Z,565.00
2023-11-19T01:37:48.421Z,564.00
2023-11-19T01:38:18.429Z,563.00
2023-11-19T01:38:48.460Z,564.00
2023-11-19T01:39:18.500Z,563.00
2023-11-19T01:39:58.972Z,564.00
2023-11-19T01:40:18.613Z,562.00
2023-11-19T01:40:48.667Z,563.00
2023-11-19T01:41:18.692Z,565.00
2023-11-19T01:41:48.728Z,565.00
2023-11-19T01:42:18.753Z,566.00
2023-11-19T01:42:48.786Z,567.00
2023-11-19T01:43:18.860Z,567.00
2023-11-19T01:43:48.882Z,565.00
2023-11-19T01:44:18.954Z,566.00
2023-11-19T01:44:48.990Z,565.00
2023-11-19T01:45:19.028Z,565.00
2023-11-19T01:45:49.109Z,566.00
2023-11-19T01:46:19.194Z,567.00
2023-11-19T01:46:49.430Z,567.00
2023-11-19T01:47:19.156Z,566.00
2023-11-19T01:47:49.227Z,565.00
2023-11-19T01:48:19.236Z,566.00
2023-11-19T01:48:49.271Z,565.00
2023-11-19T01:49:19.373Z,564.00
2023-11-19T01:49:49.395Z,565.00
2023-11-19T01:50:19.452Z,566.00
2023-11-19T01:50:49.493Z,565.00
2023-11-19T01:51:19.589Z,565.00
2023-11-19T01:51:49.625Z,566.00
2023-11-19T01:52:19.657Z,565.00
2023-11-19T01:52:49.699Z,566.00
2023-11-19T01:53:19.740Z,565.00
2023-11-19T01:53:49.764Z,566.00
2023-11-19T01:54:19.796Z,568.00
2023-11-19T01:54:49.827Z,567.00
2023-11-19T01:55:19.891Z,569.00
2023-11-19T01:55:49.901Z,569.00
2023-11-19T01:56:19.935Z,570.00
2023-11-19T01:56:49.961Z,571.00
2023-11-19T01:57:19.992Z,569.00
2023-11-19T01:57:50.025Z,568.00
2023-11-19T01:58:20.109Z,567.00
2023-11-19T01:58:50.139Z,569.00
2023-11-19T01:59:20.171Z,569.00
2023-11-19T01:59:50.240Z,568.00
2023-11-19T02:00:20.282Z,566.00
2023-11-19T02:00:50.324Z,565.00
2023-11-19T02:01:20.419Z,564.00
2023-11-19T02:02:00.555Z,564.00
2023-11-19T02:02:20.495Z,562.00
2023-11-19T02:02:50.702Z,561.00
2023-11-19T02:03:20.692Z,561.00
2023-11-19T02:03:50.750Z,561.00
2023-11-19T02:04:20.645Z,563.00
2023-11-19T02:04:50.733Z,563.00
2023-11-19T02:05:20.723Z,563.00
2023-11-19T02:05:50.717Z,562.00
2023-11-19T02:06:20.715Z,564.00
2023-11-19T02:07:20.799Z,566.00
2023-11-19T02:07:50.801Z,568.00
2023-11-19T02:08:20.802Z,568.00
2023-11-19T02:08:50.913Z,569.00
2023-11-19T02:09:21.044Z,570.00
2023-11-19T02:09:51.047Z,568.00
2023-11-19T02:10:21.111Z,570.00
2023-11-19T02:10:51.120Z,569.00
2023-11-19T02:11:21.237Z,570.00
2023-11-19T02:11:51.239Z,570.00
2023-11-19T02:12:21.353Z,570.00
2023-11-19T02:12:51.362Z,571.00
2023-11-19T02:13:21.435Z,570.00
2023-11-19T02:13:51.458Z,571.00
2023-11-19T02:14:21.498Z,571.00
2023-11-19T02:14:51.540Z,572.00
2023-11-19T02:15:21.596Z,573.00
2023-11-19T02:15:51.637Z,570.00
2023-11-19T02:16:21.705Z,569.00
2023-11-19T02:16:51.753Z,569.00
2023-11-19T02:17:21.767Z,568.00
2023-11-19T02:17:51.800Z,567.00
2023-11-19T02:18:21.825Z,566.00
2023-11-19T02:18:51.871Z,568.00
2023-11-19T02:19:21.886Z,569.00
2023-11-19T02:19:51.917Z,570.00
2023-11-19T02:20:21.952Z,570.00
2023-11-19T02:20:52.002Z,569.00
2023-11-19T02:21:22.020Z,569.00
2023-11-19T02:21:52.060Z,567.00
2023-11-19T02:22:22.104Z,567.00
2023-11-19T02:22:52.119Z,568.00
2023-11-19T02:23:22.165Z,570.00
2023-11-19T02:23:52.202Z,569.00
2023-11-19T02:24:22.229Z,569.00
2023-11-19T02:24:52.258Z,569.00
2023-11-19T02:25:22.342Z,571.00
2023-11-19T02:25:52.355Z,570.00
2023-11-19T02:26:22.405Z,572.00
2023-11-19T02:26:52.431Z,570.00
2023-11-19T02:27:22.459Z,569.00
2023-11-19T02:27:52.507Z,568.00
2023-11-19T02:28:22.575Z,569.00
2023-11-19T02:28:52.652Z,568.00
2023-11-19T02:29:22.685Z,568.00
2023-11-19T02:29:52.720Z,567.00
2023-11-19T02:30:22.758Z,567.00
2023-11-19T02:30:52.902Z,568.00
2023-11-19T02:31:22.889Z,569.00
2023-11-19T02:31:52.864Z,567.00
2023-11-19T02:32:22.892Z,565.00
2023-11-19T02:32:52.950Z,565.00
2023-11-19T02:33:23.001Z,566.00
2023-11-19T02:33:53.089Z,565.00
2023-11-19T02:34:23.079Z,565.00
2023-11-19T02:34:53.117Z,562.00
2023-11-19T02:35:23.149Z,562.00
2023-11-19T02:35:53.206Z,561.00
2023-11-19T02:36:23.241Z,562.00
2023-11-19T02:36:53.312Z,563.00
2023-11-19T02:37:23.340Z,566.00
2023-11-19T02:37:53.371Z,567.00
2023-11-19T02:38:23.393Z,567.00
2023-11-19T02:38:53.418Z,568.00
2023-11-19T02:39:23.462Z,567.00
2023-11-19T02:39:53.498Z,567.00
2023-11-19T02:40:23.549Z,568.00
2023-11-19T02:40:53.562Z,568.00
2023-11-19T02:41:23.605Z,570.00
2023-11-19T02:41:53.632Z,571.00
2023-11-19T02:42:23.685Z,570.00
2023-11-19T02:42:53.736Z,569.00
2023-11-19T02:43:23.800Z,567.00
2023-11-19T02:43:53.814Z,566.00
2023-11-19T02:44:23.847Z,567.00
2023-11-19T02:44:53.874Z,569.00
2023-11-19T02:45:23.914Z,570.00
2023-11-19T02:45:53.984Z,571.00
2023-11-19T02:46:24.177Z,570.00
2023-11-19T02:46:54.134Z,568.00
2023-11-19T02:47:24.181Z,569.00
2023-11-19T02:47:54.413Z,572.00
2023-11-19T02:48:24.318Z,571.00
2023-11-19T02:48:54.446Z,568.00
2023-11-19T02:49:24.358Z,569.00
2023-11-19T02:49:54.508Z,568.00
2023-11-19T02:50:24.421Z,568.00
2023-11-19T02:50:54.477Z,569.00
2023-11-19T02:51:24.498Z,568.00
2023-11-19T02:51:54.552Z,567.00
2023-11-19T02:52:24.640Z,567.00
2023-11-19T02:52:54.665Z,568.00
2023-11-19T02:53:24.702Z,568.00
2023-11-19T02:53:54.737Z,569.00
2023-11-19T02:54:24.764Z,572.00
2023-11-19T02:54:54.827Z,571.00
2023-11-19T02:55:24.876Z,571.00
2023-11-19T02:55:54.902Z,571.00
2023-11-19T02:56:24.936Z,571.00
2023-11-19T02:56:54.970Z,571.00
2023-11-19T02:57:24.999Z,570.00
2023-11-19T02:57:55.102Z,570.00
2023-11-19T02:58:25.221Z,570.00
2023-11-19T02:58:55.409Z,570.00
2023-11-19T02:59:25.353Z,571.00
2023-11-19T02:59:55.382Z,569.00
2023-11-19T03:00:25.434Z,569.00
2023-11-19T03:00:55.596Z,568.00
2023-11-19T03:01:25.608Z,570.00
2023-11-19T03:01:55.755Z,569.00
2023-11-19T03:02:25.774Z,568.00
2023-11-19T03:02:55.925Z,568.00
2023-11-19T03:03:25.924Z,566.00
2023-11-19T03:03:56.026Z,566.00
2023-11-19T03:04:25.852Z,567.00
2023-11-19T03:04:55.844Z,568.00
2023-11-19T03:05:26.012Z,567.00
2023-11-19T03:05:55.996Z,567.00
2023-11-19T03:06:26.107Z,566.00
2023-11-19T03:06:56.126Z,566.00
2023-11-19T03:07:26.148Z,565.00
2023-11-19T03:07:56.130Z,565.00
2023-11-19T03:08:26.249Z,565.00
2023-11-19T03:08:56.366Z,565.00
2023-11-19T03:09:26.480Z,565.00
2023-11-19T03:09:56.752Z,567.00
2023-11-19T03:10:26.558Z,568.00
2023-11-19T03:10:56.544Z,568.00
2023-11-19T03:11:26.565Z,570.00
2023-11-19T03:12:26.615Z,568.00
2023-11-19T03:12:56.697Z,567.00
2023-11-19T03:13:26.748Z,569.00
2023-11-19T03:13:56.827Z,567.00
2023-11-19T03:14:26.840Z,567.00
2023-11-19T03:14:56.875Z,567.00
2023-11-19T03:15:26.901Z,569.00
2023-11-19T03:15:57.017Z,569.00
2023-11-19T03:16:27.068Z,570.00
2023-11-19T03:16:57.076Z,568.00
2023-11-19T03:17:27.069Z,569.00
2023-11-19T03:17:57.101Z,568.00
2023-11-19T03:18:27.130Z,569.00
2023-11-19T03:18:57.207Z,571.00
2023-11-19T03:19:27.267Z,573.00
2023-11-19T03:19:57.277Z,575.00
2023-11-19T03:20:27.317Z,575.00
2023-11-19T03:20:57.343Z,575.00
2023-11-19T03:21:27.376Z,572.00
2023-11-19T03:21:57.451Z,573.00
2023-11-19T03:22:27.496Z,572.00
2023-11-19T03:22:57.516Z,573.00
2023-11-19T03:23:27.545Z,573.00
2023-11-19T03:23:57.581Z,572.00
2023-11-19T03:24:27.628Z,571.00
2023-11-19T03:24:57.692Z,572.00
2023-11-19T03:25:27.670Z,570.00
2023-11-19T03:25:57.720Z,570.00
2023-11-19T03:26:27.753Z,570.00
2023-11-19T03:26:57.786Z,571.00
2023-11-19T03:27:27.823Z,571.00
2023-11-19T03:27:57.969Z,571.00
2023-11-19T03:28:27.919Z,570.00
2023-11-19T03:28:57.932Z,569.00
2023-11-19T03:29:27.975Z,569.00
2023-11-19T03:29:58.002Z,568.00
2023-11-19T03:30:58.140Z,568.00
2023-11-19T03:31:28.164Z,567.00
2023-11-19T03:31:58.190Z,568.00
2023-11-19T03:32:28.223Z,570.00
2023-11-19T03:32:58.324Z,568.00
2023-11-19T03:33:28.343Z,567.00
2023-11-19T03:33:59.569Z,567.00
2023-11-19T03:34:28.406Z,567.00
2023-11-19T03:34:58.443Z,566.00
2023-11-19T03:35:28.476Z,566.00
2023-11-19T03:35:58.499Z,566.00
2023-11-19T03:36:28.552Z,565.00
2023-11-19T03:36:58.624Z,564.00
2023-11-19T03:37:28.670Z,563.00
2023-11-19T03:37:58.714Z,564.00
2023-11-19T03:38:28.761Z,565.00
2023-11-19T03:38:58.814Z,566.00
2023-11-19T03:39:28.842Z,565.00
2023-11-19T03:39:59.892Z,564.00
2023-11-19T03:40:28.953Z,564.00
2023-11-19T03:40:58.965Z,561.00
2023-11-19T03:41:29.078Z,560.00
2023-11-19T03:41:59.107Z,560.00
2023-11-19T03:42:29.150Z,561.00
2023-11-19T03:42:59.214Z,563.00
2023-11-19T03:43:29.316Z,564.00
2023-11-19T03:43:59.329Z,563.00
2023-11-19T03:44:29.365Z,563.00
2023-11-19T03:44:59.410Z,564.00
2023-11-19T03:45:29.419Z,563.00
2023-11-19T03:45:59.500Z,562.00
2023-11-19T03:46:29.639Z,563.00
2023-11-19T03:46:59.624Z,563.00
2023-11-19T03:47:29.701Z,564.00
2023-11-19T03:47:59.776Z,564.00
2023-11-19T03:48:29.820Z,565.00
2023-11-19T03:48:59.846Z,567.00
2023-11-19T03:49:29.894Z,565.00
2023-11-19T03:49:59.915Z,565.00
2023-11-19T03:50:29.945Z,564.00
2023-11-19T03:50:59.974Z,565.00
2023-11-19T03:51:30.009Z,565.00
2023-11-19T03:52:00.064Z,565.00
2023-11-19T03:52:30.130Z,564.00
2023-11-19T03:53:00.213Z,564.00
2023-11-19T03:53:30.228Z,563.00
2023-11-19T03:54:00.342Z,563.00
2023-11-19T03:54:30.382Z,563.00
2023-11-19T03:55:00.497Z,564.00
2023-11-19T03:55:30.552Z,564.00
2023-11-19T03:56:00.499Z,565.00
2023-11-19T03:56:30.542Z,566.00
2023-11-19T03:57:00.579Z,567.00
2023-11-19T03:57:30.609Z,566.00
2023-11-19T03:58:00.722Z,565.00
2023-11-19T03:58:30.752Z,566.00
2023-11-19T03:59:00.782Z,567.00
2023-11-19T03:59:30.811Z,568.00
2023-11-19T04:00:00.876Z,568.00
2023-11-19T04:00:30.895Z,569.00
2023-11-19T04:01:00.938Z,569.00
2023-11-19T04:01:31.072Z,567.00
2023-11-19T04:02:01.150Z,568.00
2023-11-19T04:02:31.171Z,569.00
2023-11-19T04:03:01.314Z,569.00
2023-11-19T04:03:31.340Z,570.00
2023-11-19T04:04:01.450Z,571.00
2023-11-19T04:04:31.524Z,569.00
2023-11-19T04:05:01.535Z,569.00
2023-11-19T04:05:31.541Z,569.00
2023-11-19T04:06:01.659Z,570.00
2023-11-19T04:06:31.657Z,570.00
2023-11-19T04:07:31.757Z,570.00
2023-11-19T04:08:01.856Z,571.00
2023-11-19T04:08:31.854Z,571.00
2023-11-19T04:09:01.964Z,570.00
2023-11-19T04:09:32.079Z,570.00
2023-11-19T04:10:02.237Z,572.00
2023-11-19T04:10:32.258Z,572.00
2023-11-19T04:11:02.247Z,571.00
2023-11-19T04:12:02.338Z,571.00
2023-11-19T04:12:32.330Z,571.00
2023-11-19T04:13:02.420Z,571.00
2023-11-19T04:13:32.491Z,570.00
2023-11-19T04:14:02.613Z,569.00
2023-11-19T04:14:32.618Z,569.00
2023-11-19T04:15:02.780Z,568.00
2023-11-19T04:15:32.697Z,568.00
2023-11-19T04:16:02.822Z,568.00
2023-11-19T04:16:32.815Z,567.00
2023-11-19T04:17:02.766Z,566.00
2023-11-19T04:17:32.798Z,567.00
2023-11-19T04:18:02.870Z,567.00
2023-11-19T04:18:32.870Z,569.00
2023-11-19T04:19:02.924Z,569.00
2023-11-19T04:19:33.013Z,569.00
2023-11-19T04:20:03.142Z,570.00
2023-11-19T04:20:33.170Z,570.00
2023-11-19T04:21:03.201Z,570.00
2023-11-19T04:21:33.233Z,570.00
2023-11-19T04:22:03.303Z,571.00
2023-11-19T04:22:33.385Z,571.00
2023-11-19T04:23:03.417Z,571.00
2023-11-19T04:23:33.451Z,569.00
2023-11-19T04:24:03.474Z,569.00
2023-11-19T04:24:33.507Z,569.00
2023-11-19T04:25:03.616Z,570.00
2023-11-19T04:25:33.651Z,571.00
2023-11-19T04:26:33.768Z,571.00
2023-11-19T04:27:03.806Z,571.00
2023-11-19T04:27:33.842Z,571.00
2023-11-19T04:28:03.923Z,572.00
2023-11-19T04:28:33.934Z,572.00
2023-11-19T04:29:03.965Z,571.00
2023-11-19T04:29:34.011Z,573.00
2023-11-19T04:30:04.045Z,573.00
2023-11-19T04:30:34.070Z,574.00
2023-11-19T04:31:04.137Z,573.00
2023-11-19T04:31:34.246Z,574.00
2023-11-19T04:32:04.274Z,574.00
2023-11-19T04:32:34.374Z,574.00
2023-11-19T04:33:04.442Z,572.00
2023-11-19T04:33:34.464Z,573.00
2023-11-19T04:34:04.552Z,572.00
2023-11-19T04:34:34.683Z,571.00
2023-11-19T04:35:04.662Z,572.00
2023-11-19T04:35:34.694Z,571.00
2023-11-19T04:36:04.807Z,571.00
2023-11-19T04:36:34.830Z,573.00
2023-11-19T04:37:34.981Z,575.00
2023-11-19T04:38:04.979Z,575.00
2023-11-19T04:38:35.016Z,574.00
2023-11-19T04:39:05.049Z,573.00
2023-11-19T04:39:35.101Z,574.00
2023-11-19T04:40:05.234Z,574.00
2023-11-19T04:40:35.418Z,574.00
2023-11-19T04:41:05.153Z,573.00
2023-11-19T04:41:35.184Z,572.00
2023-11-19T04:42:05.223Z,572.00
2023-11-19T04:42:35.249Z,571.00
2023-11-19T04:43:05.301Z,570.00
2023-11-19T04:43:35.360Z,569.00
2023-11-19T04:44:05.404Z,570.00
2023-11-19T04:44:35.420Z,570.00
2023-11-19T04:45:05.462Z,570.00
2023-11-19T04:45:35.485Z,570.00
2023-11-19T04:46:05.660Z,570.00
2023-11-19T04:46:35.648Z,570.00
2023-11-19T04:47:05.794Z,568.00
2023-11-19T04:47:35.795Z,568.00
2023-11-19T04:48:05.828Z,568.00
2023-11-19T04:49:05.944Z,569.00
2023-11-19T04:49:36.012Z,568.00
2023-11-19T04:50:06.065Z,569.00
2023-11-19T04:50:36.075Z,571.00
2023-11-19T04:51:06.106Z,571.00
2023-11-19T04:51:36.134Z,571.00
2023-11-19T04:52:06.202Z,571.00
2023-11-19T04:52:36.278Z,573.00
2023-11-19T04:53:06.313Z,572.00
2023-11-19T04:53:36.340Z,572.00
2023-11-19T04:54:06.365Z,571.00
2023-11-19T04:54:36.394Z,570.00
2023-11-19T04:55:06.479Z,570.00
2023-11-19T04:55:36.521Z,570.00
2023-11-19T04:56:06.556Z,571.00
2023-11-19T04:56:36.592Z,571.00
2023-11-19T04:57:06.639Z,571.00
2023-11-19T04:57:36.671Z,571.00
2023-11-19T04:58:06.732Z,573.00
2023-11-19T04:58:36.769Z,572.00
2023-11-19T04:59:06.783Z,572.00
2023-11-19T04:59:36.830Z,572.00
2023-11-19T05:00:16.972Z,573.00
2023-11-19T05:00:36.922Z,573.00
2023-11-19T05:01:07.028Z,573.00
2023-11-19T05:01:37.102Z,572.00
2023-11-19T05:02:07.123Z,572.00
2023-11-19T05:02:37.234Z,573.00
2023-11-19T05:03:07.288Z,572.00
2023-11-19T05:03:37.459Z,572.00
2023-11-19T05:04:07.463Z,571.00
2023-11-19T05:04:37.473Z,570.00
2023-11-19T05:05:07.564Z,571.00
2023-11-19T05:05:37.610Z,571.00
2023-11-19T05:06:07.605Z,571.00
2023-11-19T05:06:37.593Z,571.00
2023-11-19T05:07:37.786Z,568.00
2023-11-19T05:08:07.684Z,569.00
2023-11-19T05:08:37.683Z,570.00
2023-11-19T05:09:37.691Z,568.00
2023-11-19T05:10:07.795Z,568.00
2023-11-19T05:10:37.863Z,569.00
2023-11-19T05:11:07.897Z,568.00
2023-11-19T05:11:51.410Z,567.00
2023-11-19T05:12:07.921Z,569.00
2023-11-19T05:12:37.911Z,570.00
2023-11-19T05:13:08.031Z,571.00
2023-11-19T05:13:38.087Z,572.00
2023-11-19T05:14:08.143Z,574.00
2023-11-19T05:14:38.201Z,575.00
2023-11-19T05:15:08.268Z,575.00
2023-11-19T05:15:38.282Z,575.00
2023-11-19T05:16:08.362Z,574.00
2023-11-19T05:16:38.473Z,574.00
2023-11-19T05:17:08.407Z,575.00
2023-11-19T05:17:38.711Z,576.00
2023-11-19T05:18:08.582Z,576.00
2023-11-19T05:18:40.662Z,577.00
2023-11-19T05:19:08.689Z,577.00
2023-11-19T05:19:38.725Z,578.00
2023-11-19T05:20:08.756Z,576.00
2023-11-19T05:20:38.817Z,574.00
2023-11-19T05:21:08.878Z,574.00
2023-11-19T05:21:38.930Z,575.00
2023-11-19T05:22:09.007Z,575.00
2023-11-19T05:22:39.093Z,574.00
2023-11-19T05:23:39.147Z,573.00
2023-11-19T05:24:09.291Z,573.00
2023-11-19T05:24:39.407Z,574.00
2023-11-19T05:25:09.358Z,573.00
2023-11-19T05:25:39.346Z,572.00
2023-11-19T05:26:09.431Z,573.00
2023-11-19T05:26:39.442Z,574.00
2023-11-19T05:27:09.485Z,574.00
2023-11-19T05:27:39.534Z,573.00
2023-11-19T05:28:09.561Z,571.00
2023-11-19T05:28:39.606Z,571.00
2023-11-19T05:29:09.641Z,571.00
2023-11-19T05:29:39.682Z,570.00
2023-11-19T05:30:09.720Z,567.00
2023-11-19T05:30:39.801Z,568.00
2023-11-19T05:31:09.890Z,569.00
2023-11-19T05:31:40.956Z,571.00
2023-11-19T05:32:09.941Z,573.00
2023-11-19T05:32:39.983Z,574.00
2023-11-19T05:33:10.006Z,574.00
2023-11-19T05:33:40.108Z,574.00
2023-11-19T05:34:10.223Z,575.00
2023-11-19T05:34:52.032Z,575.00
2023-11-19T05:35:10.182Z,573.00
2023-11-19T05:35:40.223Z,573.00
2023-11-19T05:36:10.276Z,573.00
2023-11-19T05:36:40.304Z,576.00
2023-11-19T05:37:10.362Z,574.00
2023-11-19T05:37:40.422Z,574.00
2023-11-19T05:38:10.501Z,575.00
2023-11-19T05:38:40.532Z,573.00
2023-11-19T05:39:10.562Z,573.00
2023-11-19T05:39:40.596Z,573.00
2023-11-19T05:40:10.661Z,574.00
2023-11-19T05:40:40.778Z,574.00
2023-11-19T05:41:10.724Z,572.00
2023-11-19T05:41:40.751Z,572.00
2023-11-19T05:42:10.808Z,571.00
2023-11-19T05:42:40.831Z,571.00
2023-11-19T05:43:10.869Z,572.00
2023-11-19T05:43:40.950Z,572.00
2023-11-19T05:44:10.896Z,573.00
2023-11-19T05:44:41.712Z,573.00
2023-11-19T05:45:11.021Z,573.00
2023-11-19T05:45:41.059Z,572.00
2023-11-19T05:46:41.308Z,572.00
2023-11-19T05:47:11.352Z,572.00
2023-11-19T05:47:41.455Z,571.00
2023-11-19T05:48:11.424Z,569.00
2023-11-19T05:48:41.442Z,568.00
2023-11-19T05:49:11.500Z,568.00
2023-11-19T05:49:41.500Z,568.00
2023-11-19T05:50:11.528Z,569.00
2023-11-19T05:50:41.558Z,568.00
2023-11-19T05:51:11.647Z,566.00
2023-11-19T05:51:41.699Z,567.00
2023-11-19T05:52:11.747Z,568.00
2023-11-19T05:52:41.791Z,568.00
2023-11-19T05:53:11.825Z,570.00
2023-11-19T05:53:41.857Z,568.00
2023-11-19T05:54:11.938Z,570.00
2023-11-19T05:54:41.954Z,569.00
2023-11-19T05:55:12.314Z,568.00
2023-11-19T05:55:41.983Z,567.00
2023-11-19T05:56:12.017Z,568.00
2023-11-19T05:56:42.057Z,567.00
2023-11-19T05:57:12.090Z,567.00
2023-11-19T05:58:12.208Z,567.00
2023-11-19T05:58:42.225Z,568.00
2023-11-19T05:59:12.265Z,568.00
2023-11-19T05:59:42.295Z,569.00
2023-11-19T06:00:12.328Z,568.00
2023-11-19T06:00:42.384Z,567.00
2023-11-19T06:01:12.507Z,566.00
2023-11-19T06:01:42.459Z,566.00
2023-11-19T06:02:12.521Z,565.00
2023-11-19T06:02:42.561Z,565.00
2023-11-19T06:03:12.615Z,563.00
2023-11-19T06:03:42.700Z,563.00
2023-11-19T06:04:12.784Z,562.00
2023-11-19T06:04:42.827Z,562.00
2023-11-19T06:05:12.799Z,562.00
2023-11-19T06:05:42.887Z,565.00
2023-11-19T06:06:13.007Z,566.00
2023-11-19T06:06:43.126Z,568.00
2023-11-19T06:07:13.285Z,568.00
2023-11-19T06:07:43.305Z,568.00
2023-11-19T06:08:13.298Z,569.00
2023-11-19T06:08:43.413Z,568.00
2023-11-19T06:09:14.280Z,567.00
2023-11-19T06:09:43.568Z,567.00
2023-11-19T06:10:13.601Z,567.00
2023-11-19T06:10:43.586Z,567.00
2023-11-19T06:11:13.600Z,567.00
2023-11-19T06:11:43.719Z,566.00
2023-11-19T06:12:13.719Z,566.00
2023-11-19T06:12:43.744Z,565.00
2023-11-19T06:13:13.809Z,566.00
2023-11-19T06:13:43.874Z,567.00
2023-11-19T06:14:13.928Z,568.00
2023-11-19T06:14:43.946Z,567.00
2023-11-19T06:15:13.986Z,570.00
2023-11-19T06:15:44.108Z,570.00
2023-11-19T06:16:14.137Z,573.00
2023-11-19T06:16:44.100Z,573.00
2023-11-19T06:17:14.190Z,575.00
2023-11-19T06:17:44.320Z,576.00
2023-11-19T06:18:14.352Z,574.00
2023-11-19T06:18:44.292Z,575.00
2023-11-19T06:19:14.390Z,574.00
2023-11-19T06:19:44.373Z,572.00
2023-11-19T06:20:14.399Z,572.00
2023-11-19T06:20:44.438Z,571.00
2023-11-19T06:21:14.646Z,571.00
2023-11-19T06:21:44.549Z,571.00
2023-11-19T06:22:44.724Z,570.00
2023-11-19T06:23:14.742Z,569.00
2023-11-19T06:23:44.761Z,569.00
2023-11-19T06:24:14.791Z,569.00
2023-11-19T06:24:44.816Z,570.00
2023-11-19T06:25:14.882Z,570.00
2023-11-19T06:25:45.007Z,571.00